sensor_id;sensor_type;location;lat;lon;timestamp;temperature;humidity
53268;DHT22;39156;51.176;6.738;2023-09-19T00:01:33;16.10;75.10
53268;DHT22;39156;51.176;6.738;2023-09-19T00:03:59;16.10;75.00
53268;DHT22;39156;51.176;6.738;2023-09-19T00:06:28;16.10;75.10
53268;DHT22;39156;51.176;6.738;2023-09-19T00:08:57;16.10;75.10
53268;DHT22;39156;51.176;6.738;2023-09-19T00:11:25;16.00;75.10
53268;DHT22;39156;51.176;6.738;2023-09-19T00:13:52;16.00;75.20
53268;DHT22;39156;51.176;6.738;2023-09-19T00:16:18;16.00;75.40
53268;DHT22;39156;51.176;6.738;2023-09-19T00:18:44;15.90;75.30
53268;DHT22;39156;51.176;6.738;2023-09-19T00:21:10;16.00;75.30
53268;DHT22;39156;51.176;6.738;2023-09-19T00:23:36;15.90;75.40
53268;DHT22;39156;51.176;6.738;2023-09-19T00:26:03;15.90;75.40
53268;DHT22;39156;51.176;6.738;2023-09-19T00:28:29;15.90;75.50
53268;DHT22;39156;51.176;6.738;2023-09-19T00:30:58;15.80;75.50
53268;DHT22;39156;51.176;6.738;2023-09-19T00:33:28;15.80;75.60
53268;DHT22;39156;51.176;6.738;2023-09-19T00:35:56;15.90;75.60
53268;DHT22;39156;51.176;6.738;2023-09-19T00:38:23;15.90;75.60
53268;DHT22;39156;51.176;6.738;2023-09-19T00:40:53;15.80;75.60
53268;DHT22;39156;51.176;6.738;2023-09-19T00:43:20;15.80;75.60
53268;DHT22;39156;51.176;6.738;2023-09-19T00:45:48;15.80;75.50
53268;DHT22;39156;51.176;6.738;2023-09-19T00:48:16;15.80;75.50
53268;DHT22;39156;51.176;6.738;2023-09-19T00:50:44;15.80;75.60
53268;DHT22;39156;51.176;6.738;2023-09-19T00:53:15;15.80;75.60
53268;DHT22;39156;51.176;6.738;2023-09-19T00:55:47;15.70;75.70
53268;DHT22;39156;51.176;6.738;2023-09-19T00:58:13;15.70;75.60
53268;DHT22;39156;51.176;6.738;2023-09-19T01:00:40;15.70;75.50
53268;DHT22;39156;51.176;6.738;2023-09-19T01:03:06;15.70;75.60
53268;DHT22;39156;51.176;6.738;2023-09-19T01:05:33;15.70;75.70
53268;DHT22;39156;51.176;6.738;2023-09-19T01:07:59;15.60;75.60
53268;DHT22;39156;51.176;6.738;2023-09-19T01:10:25;15.60;75.70
53268;DHT22;39156;51.176;6.738;2023-09-19T01:22:05;15.60;76.20
53268;DHT22;39156;51.176;6.738;2023-09-19T01:30:40;15.60;76.10
53268;DHT22;39156;51.176;6.738;2023-09-19T01:33:09;15.60;75.80
53268;DHT22;39156;51.176;6.738;2023-09-19T01:35:38;15.50;75.50
53268;DHT22;39156;51.176;6.738;2023-09-19T01:38:05;15.60;75.80
53268;DHT22;39156;51.176;6.738;2023-09-19T01:40:41;15.50;75.70
53268;DHT22;39156;51.176;6.738;2023-09-19T01:49:37;15.50;76.30
53268;DHT22;39156;51.176;6.738;2023-09-19T01:52:09;15.50;76.80
53268;DHT22;39156;51.176;6.738;2023-09-19T01:54:52;15.50;76.50
53268;DHT22;39156;51.176;6.738;2023-09-19T02:00:07;15.50;76.30
53268;DHT22;39156;51.176;6.738;2023-09-19T02:02:38;15.50;76.20
53268;DHT22;39156;51.176;6.738;2023-09-19T02:05:05;15.50;76.10
53268;DHT22;39156;51.176;6.738;2023-09-19T02:07:31;15.40;75.80
53268;DHT22;39156;51.176;6.738;2023-09-19T02:09:58;15.50;76.00
53268;DHT22;39156;51.176;6.738;2023-09-19T02:12:28;15.50;75.90
53268;DHT22;39156;51.176;6.738;2023-09-19T02:14:55;15.50;75.90
53268;DHT22;39156;51.176;6.738;2023-09-19T02:17:22;15.40;75.90
53268;DHT22;39156;51.176;6.738;2023-09-19T02:19:54;15.50;75.80
53268;DHT22;39156;51.176;6.738;2023-09-19T02:22:21;15.40;75.70
53268;DHT22;39156;51.176;6.738;2023-09-19T02:24:50;15.40;75.60
53268;DHT22;39156;51.176;6.738;2023-09-19T02:27:16;15.40;75.50
53268;DHT22;39156;51.176;6.738;2023-09-19T02:29:43;15.40;75.40
53268;DHT22;39156;51.176;6.738;2023-09-19T02:32:09;15.30;75.20
53268;DHT22;39156;51.176;6.738;2023-09-19T02:34:37;15.30;75.20
53268;DHT22;39156;51.176;6.738;2023-09-19T02:37:07;15.30;74.90
53268;DHT22;39156;51.176;6.738;2023-09-19T02:39:34;15.40;75.10
53268;DHT22;39156;51.176;6.738;2023-09-19T02:42:00;15.30;74.90
53268;DHT22;39156;51.176;6.738;2023-09-19T02:44:26;15.30;75.00
53268;DHT22;39156;51.176;6.738;2023-09-19T02:46:52;15.20;74.90
53268;DHT22;39156;51.176;6.738;2023-09-19T02:49:18;15.30;75.00
53268;DHT22;39156;51.176;6.738;2023-09-19T02:51:44;15.20;75.00
53268;DHT22;39156;51.176;6.738;2023-09-19T02:54:11;15.20;75.00
53268;DHT22;39156;51.176;6.738;2023-09-19T02:56:37;15.20;74.90
53268;DHT22;39156;51.176;6.738;2023-09-19T02:59:03;15.10;74.70
53268;DHT22;39156;51.176;6.738;2023-09-19T03:01:29;15.20;74.70
53268;DHT22;39156;51.176;6.738;2023-09-19T03:03:55;15.20;74.50
53268;DHT22;39156;51.176;6.738;2023-09-19T03:06:21;15.10;74.40
53268;DHT22;39156;51.176;6.738;2023-09-19T03:08:47;15.10;74.30
53268;DHT22;39156;51.176;6.738;2023-09-19T03:11:15;15.10;74.10
53268;DHT22;39156;51.176;6.738;2023-09-19T03:13:44;15.10;74.30
53268;DHT22;39156;51.176;6.738;2023-09-19T03:16:11;15.10;74.20
53268;DHT22;39156;51.176;6.738;2023-09-19T03:18:37;15.00;74.20
53268;DHT22;39156;51.176;6.738;2023-09-19T03:21:02;15.00;74.10
53268;DHT22;39156;51.176;6.738;2023-09-19T03:23:29;15.10;74.10
53268;DHT22;39156;51.176;6.738;2023-09-19T03:25:55;15.00;74.10
53268;DHT22;39156;51.176;6.738;2023-09-19T03:28:22;15.00;74.10
53268;DHT22;39156;51.176;6.738;2023-09-19T03:31:05;15.00;74.20
53268;DHT22;39156;51.176;6.738;2023-09-19T03:33:32;14.90;73.80
53268;DHT22;39156;51.176;6.738;2023-09-19T03:35:59;15.00;74.00
53268;DHT22;39156;51.176;6.738;2023-09-19T03:38:31;14.90;73.90
53268;DHT22;39156;51.176;6.738;2023-09-19T03:40:58;15.00;74.00
53268;DHT22;39156;51.176;6.738;2023-09-19T03:43:24;14.90;74.10
53268;DHT22;39156;51.176;6.738;2023-09-19T03:45:50;14.90;74.00
53268;DHT22;39156;51.176;6.738;2023-09-19T03:48:16;14.90;74.00
53268;DHT22;39156;51.176;6.738;2023-09-19T03:50:42;14.90;74.10
53268;DHT22;39156;51.176;6.738;2023-09-19T03:53:09;14.90;74.10
53268;DHT22;39156;51.176;6.738;2023-09-19T03:55:35;14.80;74.10
53268;DHT22;39156;51.176;6.738;2023-09-19T03:58:03;14.80;74.10
53268;DHT22;39156;51.176;6.738;2023-09-19T04:00:29;14.80;74.20
53268;DHT22;39156;51.176;6.738;2023-09-19T04:02:55;14.80;74.20
53268;DHT22;39156;51.176;6.738;2023-09-19T04:05:22;14.70;74.20
53268;DHT22;39156;51.176;6.738;2023-09-19T04:07:48;14.80;74.30
53268;DHT22;39156;51.176;6.738;2023-09-19T04:10:15;14.80;74.30
53268;DHT22;39156;51.176;6.738;2023-09-19T04:12:53;14.80;74.40
53268;DHT22;39156;51.176;6.738;2023-09-19T04:15:20;14.70;74.30
53268;DHT22;39156;51.176;6.738;2023-09-19T04:17:47;14.80;74.30
53268;DHT22;39156;51.176;6.738;2023-09-19T04:20:14;14.80;74.20
53268;DHT22;39156;51.176;6.738;2023-09-19T04:22:40;14.70;74.20
53268;DHT22;39156;51.176;6.738;2023-09-19T04:25:06;14.80;74.30
53268;DHT22;39156;51.176;6.738;2023-09-19T04:27:32;14.70;74.40
53268;DHT22;39156;51.176;6.738;2023-09-19T04:29:58;14.70;74.20
53268;DHT22;39156;51.176;6.738;2023-09-19T04:32:28;14.70;74.30
53268;DHT22;39156;51.176;6.738;2023-09-19T04:34:54;14.70;74.20
53268;DHT22;39156;51.176;6.738;2023-09-19T04:37:20;14.70;74.40
53268;DHT22;39156;51.176;6.738;2023-09-19T04:39:47;14.80;74.30
53268;DHT22;39156;51.176;6.738;2023-09-19T04:42:15;14.70;74.20
53268;DHT22;39156;51.176;6.738;2023-09-19T04:44:41;14.70;74.10
53268;DHT22;39156;51.176;6.738;2023-09-19T04:47:07;14.70;74.30
53268;DHT22;39156;51.176;6.738;2023-09-19T04:49:33;14.70;74.20
53268;DHT22;39156;51.176;6.738;2023-09-19T04:52:00;14.60;74.30
53268;DHT22;39156;51.176;6.738;2023-09-19T04:54:26;14.70;74.20
53268;DHT22;39156;51.176;6.738;2023-09-19T04:56:52;14.70;74.20
53268;DHT22;39156;51.176;6.738;2023-09-19T04:59:18;14.70;74.20
53268;DHT22;39156;51.176;6.738;2023-09-19T05:01:43;14.80;74.10
53268;DHT22;39156;51.176;6.738;2023-09-19T05:04:09;14.70;74.10
53268;DHT22;39156;51.176;6.738;2023-09-19T05:06:35;14.70;74.10
53268;DHT22;39156;51.176;6.738;2023-09-19T05:09:01;14.70;74.00
53268;DHT22;39156;51.176;6.738;2023-09-19T05:11:27;14.70;73.90
53268;DHT22;39156;51.176;6.738;2023-09-19T05:13:55;14.70;73.90
53268;DHT22;39156;51.176;6.738;2023-09-19T05:16:21;14.70;73.70
53268;DHT22;39156;51.176;6.738;2023-09-19T05:18:47;14.60;74.10
53268;DHT22;39156;51.176;6.738;2023-09-19T05:21:13;14.60;73.90
53268;DHT22;39156;51.176;6.738;2023-09-19T05:23:38;14.70;73.90
53268;DHT22;39156;51.176;6.738;2023-09-19T05:26:04;14.70;73.60
53268;DHT22;39156;51.176;6.738;2023-09-19T05:28:30;14.80;73.70
53268;DHT22;39156;51.176;6.738;2023-09-19T05:31:00;14.70;73.50
53268;DHT22;39156;51.176;6.738;2023-09-19T05:33:27;14.80;73.50
53268;DHT22;39156;51.176;6.738;2023-09-19T05:35:53;14.80;73.40
53268;DHT22;39156;51.176;6.738;2023-09-19T05:38:19;14.80;73.30
53268;DHT22;39156;51.176;6.738;2023-09-19T05:40:45;14.80;73.10
53268;DHT22;39156;51.176;6.738;2023-09-19T05:43:11;14.90;73.00
53268;DHT22;39156;51.176;6.738;2023-09-19T05:45:39;14.90;73.10
53268;DHT22;39156;51.176;6.738;2023-09-19T05:48:13;15.00;73.20
53268;DHT22;39156;51.176;6.738;2023-09-19T05:50:41;15.00;73.20
53268;DHT22;39156;51.176;6.738;2023-09-19T05:53:08;15.00;73.00
53268;DHT22;39156;51.176;6.738;2023-09-19T05:55:40;15.00;73.10
53268;DHT22;39156;51.176;6.738;2023-09-19T05:58:06;15.10;72.80
53268;DHT22;39156;51.176;6.738;2023-09-19T06:00:31;15.10;73.50
53268;DHT22;39156;51.176;6.738;2023-09-19T06:02:58;15.20;73.00
53268;DHT22;39156;51.176;6.738;2023-09-19T06:05:25;15.20;72.80
53268;DHT22;39156;51.176;6.738;2023-09-19T06:07:52;15.20;72.90
53268;DHT22;39156;51.176;6.738;2023-09-19T06:10:18;15.30;73.00
53268;DHT22;39156;51.176;6.738;2023-09-19T06:12:46;15.20;72.80
53268;DHT22;39156;51.176;6.738;2023-09-19T06:15:14;15.40;72.90
53268;DHT22;39156;51.176;6.738;2023-09-19T06:17:51;15.40;72.80
53268;DHT22;39156;51.176;6.738;2023-09-19T06:20:20;15.30;72.70
53268;DHT22;39156;51.176;6.738;2023-09-19T06:22:47;15.40;72.90
53268;DHT22;39156;51.176;6.738;2023-09-19T06:25:14;15.50;73.00
53268;DHT22;39156;51.176;6.738;2023-09-19T06:27:48;15.50;72.80
53268;DHT22;39156;51.176;6.738;2023-09-19T06:30:16;15.50;72.80
53268;DHT22;39156;51.176;6.738;2023-09-19T06:32:43;15.50;72.70
53268;DHT22;39156;51.176;6.738;2023-09-19T06:35:13;15.60;73.10
53268;DHT22;39156;51.176;6.738;2023-09-19T06:37:40;15.60;72.90
53268;DHT22;39156;51.176;6.738;2023-09-19T06:40:10;15.60;72.70
53268;DHT22;39156;51.176;6.738;2023-09-19T06:42:43;15.80;72.90
53268;DHT22;39156;51.176;6.738;2023-09-19T06:45:11;15.80;72.50
53268;DHT22;39156;51.176;6.738;2023-09-19T06:47:43;15.80;72.50
53268;DHT22;39156;51.176;6.738;2023-09-19T06:50:09;15.90;72.60
53268;DHT22;39156;51.176;6.738;2023-09-19T06:52:39;15.90;72.40
53268;DHT22;39156;51.176;6.738;2023-09-19T06:55:06;16.00;72.20
53268;DHT22;39156;51.176;6.738;2023-09-19T06:57:32;16.00;72.30
53268;DHT22;39156;51.176;6.738;2023-09-19T06:59:58;16.10;72.60
53268;DHT22;39156;51.176;6.738;2023-09-19T07:02:23;16.10;72.30
53268;DHT22;39156;51.176;6.738;2023-09-19T07:04:49;16.20;72.30
53268;DHT22;39156;51.176;6.738;2023-09-19T07:07:15;16.30;72.30
53268;DHT22;39156;51.176;6.738;2023-09-19T07:09:41;16.40;71.90
53268;DHT22;39156;51.176;6.738;2023-09-19T07:12:07;16.50;72.20
53268;DHT22;39156;51.176;6.738;2023-09-19T07:14:33;16.60;71.80
53268;DHT22;39156;51.176;6.738;2023-09-19T07:16:59;16.70;72.00
53268;DHT22;39156;51.176;6.738;2023-09-19T07:19:29;16.80;71.60
53268;DHT22;39156;51.176;6.738;2023-09-19T07:21:56;16.80;71.50
53268;DHT22;39156;51.176;6.738;2023-09-19T07:24:24;16.90;71.20
53268;DHT22;39156;51.176;6.738;2023-09-19T07:26:54;17.00;70.80
53268;DHT22;39156;51.176;6.738;2023-09-19T07:29:20;17.20;70.60
53268;DHT22;39156;51.176;6.738;2023-09-19T07:31:45;17.30;70.40
53268;DHT22;39156;51.176;6.738;2023-09-19T07:34:12;17.50;70.50
53268;DHT22;39156;51.176;6.738;2023-09-19T07:36:39;17.60;70.40
53268;DHT22;39156;51.176;6.738;2023-09-19T07:39:06;17.80;70.30
53268;DHT22;39156;51.176;6.738;2023-09-19T07:41:33;17.90;70.10
53268;DHT22;39156;51.176;6.738;2023-09-19T07:43:58;18.00;69.80
53268;DHT22;39156;51.176;6.738;2023-09-19T07:46:24;18.20;69.00
53268;DHT22;39156;51.176;6.738;2023-09-19T07:48:51;18.40;68.90
53268;DHT22;39156;51.176;6.738;2023-09-19T07:51:17;18.50;68.60
53268;DHT22;39156;51.176;6.738;2023-09-19T07:53:43;18.70;68.10
53268;DHT22;39156;51.176;6.738;2023-09-19T07:56:10;18.90;67.80
53268;DHT22;39156;51.176;6.738;2023-09-19T07:58:38;19.00;67.60
53268;DHT22;39156;51.176;6.738;2023-09-19T08:01:07;19.10;67.00
53268;DHT22;39156;51.176;6.738;2023-09-19T08:03:36;19.40;66.80
53268;DHT22;39156;51.176;6.738;2023-09-19T08:06:10;19.50;66.30
53268;DHT22;39156;51.176;6.738;2023-09-19T08:08:36;19.70;66.10
53268;DHT22;39156;51.176;6.738;2023-09-19T08:11:03;19.90;65.90
53268;DHT22;39156;51.176;6.738;2023-09-19T08:13:46;20.10;65.20
53268;DHT22;39156;51.176;6.738;2023-09-19T08:16:17;20.30;64.90
53268;DHT22;39156;51.176;6.738;2023-09-19T08:18:48;20.40;64.70
53268;DHT22;39156;51.176;6.738;2023-09-19T08:21:14;20.50;63.90
53268;DHT22;39156;51.176;6.738;2023-09-19T08:23:40;20.70;62.60
53268;DHT22;39156;51.176;6.738;2023-09-19T08:26:06;20.90;63.10
53268;DHT22;39156;51.176;6.738;2023-09-19T08:28:36;21.00;62.80
53268;DHT22;39156;51.176;6.738;2023-09-19T08:31:07;21.10;62.00
53268;DHT22;39156;51.176;6.738;2023-09-19T08:33:37;21.20;61.40
53268;DHT22;39156;51.176;6.738;2023-09-19T08:36:04;21.30;62.00
53268;DHT22;39156;51.176;6.738;2023-09-19T08:38:34;21.50;61.70
53268;DHT22;39156;51.176;6.738;2023-09-19T08:41:04;21.50;60.30
53268;DHT22;39156;51.176;6.738;2023-09-19T08:43:31;21.70;60.60
53268;DHT22;39156;51.176;6.738;2023-09-19T08:48:31;22.00;59.50
53268;DHT22;39156;51.176;6.738;2023-09-19T08:51:06;22.10;60.10
53268;DHT22;39156;51.176;6.738;2023-09-19T08:53:51;22.20;58.30
53268;DHT22;39156;51.176;6.738;2023-09-19T08:56:20;22.30;57.60
53268;DHT22;39156;51.176;6.738;2023-09-19T08:58:55;22.40;58.30
53268;DHT22;39156;51.176;6.738;2023-09-19T09:01:28;22.50;58.10
53268;DHT22;39156;51.176;6.738;2023-09-19T09:03:55;22.60;57.80
53268;DHT22;39156;51.176;6.738;2023-09-19T09:06:23;22.70;58.30
53268;DHT22;39156;51.176;6.738;2023-09-19T09:08:52;22.70;57.70
53268;DHT22;39156;51.176;6.738;2023-09-19T09:11:19;22.90;57.10
53268;DHT22;39156;51.176;6.738;2023-09-19T09:13:47;23.00;57.30
53268;DHT22;39156;51.176;6.738;2023-09-19T09:16:14;23.10;56.40
53268;DHT22;39156;51.176;6.738;2023-09-19T09:18:44;23.20;56.60
53268;DHT22;39156;51.176;6.738;2023-09-19T09:21:11;23.40;56.30
53268;DHT22;39156;51.176;6.738;2023-09-19T09:23:38;23.50;56.10
53268;DHT22;39156;51.176;6.738;2023-09-19T09:26:04;23.70;56.40
53268;DHT22;39156;51.176;6.738;2023-09-19T09:28:33;23.80;55.70
53268;DHT22;39156;51.176;6.738;2023-09-19T09:31:01;23.90;55.60
53268;DHT22;39156;51.176;6.738;2023-09-19T09:33:34;24.10;55.70
53268;DHT22;39156;51.176;6.738;2023-09-19T09:36:02;24.30;55.80
53268;DHT22;39156;51.176;6.738;2023-09-19T09:38:30;24.40;54.00
53268;DHT22;39156;51.176;6.738;2023-09-19T09:41:09;24.60;53.60
53268;DHT22;39156;51.176;6.738;2023-09-19T09:43:37;24.60;53.10
53268;DHT22;39156;51.176;6.738;2023-09-19T09:48:48;24.70;52.00
53268;DHT22;39156;51.176;6.738;2023-09-19T09:51:41;24.70;52.40
53268;DHT22;39156;51.176;6.738;2023-09-19T09:54:18;24.70;52.40
53268;DHT22;39156;51.176;6.738;2023-09-19T09:56:58;24.70;51.50
53268;DHT22;39156;51.176;6.738;2023-09-19T09:59:50;24.60;50.90
53268;DHT22;39156;51.176;6.738;2023-09-19T10:02:30;24.40;51.00
53268;DHT22;39156;51.176;6.738;2023-09-19T10:05:15;24.30;50.80
53268;DHT22;39156;51.176;6.738;2023-09-19T10:07:54;24.20;50.70
53268;DHT22;39156;51.176;6.738;2023-09-19T10:10:35;24.20;51.50
53268;DHT22;39156;51.176;6.738;2023-09-19T10:13:09;24.20;51.30
53268;DHT22;39156;51.176;6.738;2023-09-19T10:15:38;24.10;50.70
53268;DHT22;39156;51.176;6.738;2023-09-19T10:18:06;24.10;51.00
53268;DHT22;39156;51.176;6.738;2023-09-19T10:20:36;24.00;51.10
53268;DHT22;39156;51.176;6.738;2023-09-19T10:23:08;23.90;51.20
53268;DHT22;39156;51.176;6.738;2023-09-19T10:25:39;23.90;50.80
53268;DHT22;39156;51.176;6.738;2023-09-19T10:28:13;23.80;51.30
53268;DHT22;39156;51.176;6.738;2023-09-19T10:30:49;23.80;51.20
53268;DHT22;39156;51.176;6.738;2023-09-19T10:33:18;23.60;50.90
53268;DHT22;39156;51.176;6.738;2023-09-19T10:35:49;23.70;50.90
53268;DHT22;39156;51.176;6.738;2023-09-19T10:38:23;23.60;50.50
53268;DHT22;39156;51.176;6.738;2023-09-19T10:40:55;23.40;50.70
53268;DHT22;39156;51.176;6.738;2023-09-19T10:43:32;23.30;50.90
53268;DHT22;39156;51.176;6.738;2023-09-19T10:46:03;23.20;51.70
53268;DHT22;39156;51.176;6.738;2023-09-19T10:48:33;23.10;50.50
53268;DHT22;39156;51.176;6.738;2023-09-19T10:51:09;23.00;51.50
53268;DHT22;39156;51.176;6.738;2023-09-19T10:53:59;22.90;51.10
53268;DHT22;39156;51.176;6.738;2023-09-19T10:56:36;22.70;51.30
53268;DHT22;39156;51.176;6.738;2023-09-19T10:59:08;22.60;51.00
53268;DHT22;39156;51.176;6.738;2023-09-19T11:01:52;22.50;51.50
53268;DHT22;39156;51.176;6.738;2023-09-19T11:04:28;22.40;51.60
53268;DHT22;39156;51.176;6.738;2023-09-19T11:07:04;22.40;51.90
53268;DHT22;39156;51.176;6.738;2023-09-19T11:09:53;22.20;52.00
53268;DHT22;39156;51.176;6.738;2023-09-19T11:14:54;22.20;52.40
53268;DHT22;39156;51.176;6.738;2023-09-19T11:30:34;22.00;52.10
53268;DHT22;39156;51.176;6.738;2023-09-19T11:33:19;22.00;52.50
53268;DHT22;39156;51.176;6.738;2023-09-19T11:44:31;22.00;52.30
53268;DHT22;39156;51.176;6.738;2023-09-19T11:49:23;22.10;51.90
53268;DHT22;39156;51.176;6.738;2023-09-19T11:51:55;22.00;51.70
53268;DHT22;39156;51.176;6.738;2023-09-19T11:54:22;22.00;51.40
53268;DHT22;39156;51.176;6.738;2023-09-19T11:56:50;22.00;51.10
53268;DHT22;39156;51.176;6.738;2023-09-19T11:59:21;21.90;51.10
53268;DHT22;39156;51.176;6.738;2023-09-19T12:01:51;21.90;51.50
53268;DHT22;39156;51.176;6.738;2023-09-19T12:04:37;21.90;51.30
53268;DHT22;39156;51.176;6.738;2023-09-19T12:07:10;21.80;50.70
53268;DHT22;39156;51.176;6.738;2023-09-19T12:09:44;21.80;51.10
53268;DHT22;39156;51.176;6.738;2023-09-19T12:12:26;21.70;50.70
53268;DHT22;39156;51.176;6.738;2023-09-19T12:14:53;21.70;50.60
53268;DHT22;39156;51.176;6.738;2023-09-19T12:17:19;21.70;50.80
53268;DHT22;39156;51.176;6.738;2023-09-19T12:19:56;21.60;50.10
53268;DHT22;39156;51.176;6.738;2023-09-19T12:22:22;21.60;50.20
53268;DHT22;39156;51.176;6.738;2023-09-19T12:24:48;21.60;50.80
53268;DHT22;39156;51.176;6.738;2023-09-19T12:27:16;21.50;50.90
53268;DHT22;39156;51.176;6.738;2023-09-19T12:29:43;21.50;51.20
53268;DHT22;39156;51.176;6.738;2023-09-19T12:32:34;21.50;51.20
53268;DHT22;39156;51.176;6.738;2023-09-19T12:35:00;21.50;50.90
53268;DHT22;39156;51.176;6.738;2023-09-19T12:37:32;21.50;51.10
53268;DHT22;39156;51.176;6.738;2023-09-19T12:40:08;21.60;52.40
53268;DHT22;39156;51.176;6.738;2023-09-19T12:42:43;21.50;51.80
53268;DHT22;39156;51.176;6.738;2023-09-19T12:45:10;21.50;51.20
53268;DHT22;39156;51.176;6.738;2023-09-19T12:47:39;21.60;51.20
53268;DHT22;39156;51.176;6.738;2023-09-19T12:50:13;21.60;50.60
53268;DHT22;39156;51.176;6.738;2023-09-19T12:52:43;21.60;50.50
53268;DHT22;39156;51.176;6.738;2023-09-19T12:55:26;21.60;50.40
53268;DHT22;39156;51.176;6.738;2023-09-19T13:00:33;21.60;50.90
53268;DHT22;39156;51.176;6.738;2023-09-19T13:03:13;21.60;51.30
53268;DHT22;39156;51.176;6.738;2023-09-19T13:05:54;21.50;51.00
53268;DHT22;39156;51.176;6.738;2023-09-19T13:08:26;21.60;50.70
53268;DHT22;39156;51.176;6.738;2023-09-19T13:11:14;21.50;50.80
53268;DHT22;39156;51.176;6.738;2023-09-19T13:13:47;21.60;50.50
53268;DHT22;39156;51.176;6.738;2023-09-19T13:16:33;21.50;50.80
53268;DHT22;39156;51.176;6.738;2023-09-19T13:18:59;21.50;50.90
53268;DHT22;39156;51.176;6.738;2023-09-19T13:21:32;21.60;51.20
53268;DHT22;39156;51.176;6.738;2023-09-19T13:24:19;21.60;51.10
53268;DHT22;39156;51.176;6.738;2023-09-19T13:26:46;21.50;51.10
53268;DHT22;39156;51.176;6.738;2023-09-19T13:29:12;21.60;51.40
53268;DHT22;39156;51.176;6.738;2023-09-19T13:31:39;21.60;51.60
53268;DHT22;39156;51.176;6.738;2023-09-19T13:34:07;21.60;51.20
53268;DHT22;39156;51.176;6.738;2023-09-19T13:36:33;21.70;51.00
53268;DHT22;39156;51.176;6.738;2023-09-19T13:38:59;21.70;51.30
53268;DHT22;39156;51.176;6.738;2023-09-19T13:41:26;21.80;51.20
53268;DHT22;39156;51.176;6.738;2023-09-19T13:43:52;21.90;51.90
53268;DHT22;39156;51.176;6.738;2023-09-19T13:46:18;22.00;51.10
53268;DHT22;39156;51.176;6.738;2023-09-19T13:48:51;22.00;50.50
53268;DHT22;39156;51.176;6.738;2023-09-19T13:51:22;22.10;50.70
53268;DHT22;39156;51.176;6.738;2023-09-19T13:53:49;22.10;50.70
53268;DHT22;39156;51.176;6.738;2023-09-19T13:56:16;22.00;51.00
53268;DHT22;39156;51.176;6.738;2023-09-19T13:58:41;22.00;50.80
53268;DHT22;39156;51.176;6.738;2023-09-19T14:01:08;22.00;51.00
53268;DHT22;39156;51.176;6.738;2023-09-19T14:03:38;22.00;51.00
53268;DHT22;39156;51.176;6.738;2023-09-19T14:06:12;21.90;51.00
53268;DHT22;39156;51.176;6.738;2023-09-19T14:08:38;21.80;51.10
53268;DHT22;39156;51.176;6.738;2023-09-19T14:11:07;21.80;50.80
53268;DHT22;39156;51.176;6.738;2023-09-19T14:13:33;21.70;50.90
53268;DHT22;39156;51.176;6.738;2023-09-19T14:16:08;21.70;51.50
53268;DHT22;39156;51.176;6.738;2023-09-19T14:18:36;21.70;51.50
53268;DHT22;39156;51.176;6.738;2023-09-19T14:21:04;21.70;51.40
53268;DHT22;39156;51.176;6.738;2023-09-19T14:23:35;21.60;51.60
53268;DHT22;39156;51.176;6.738;2023-09-19T14:26:01;21.60;51.40
53268;DHT22;39156;51.176;6.738;2023-09-19T14:28:27;21.50;51.70
53268;DHT22;39156;51.176;6.738;2023-09-19T14:30:55;21.60;52.10
53268;DHT22;39156;51.176;6.738;2023-09-19T14:33:21;21.50;52.00
53268;DHT22;39156;51.176;6.738;2023-09-19T14:35:47;21.60;51.60
53268;DHT22;39156;51.176;6.738;2023-09-19T14:38:12;21.60;51.70
53268;DHT22;39156;51.176;6.738;2023-09-19T14:40:39;21.60;52.00
53268;DHT22;39156;51.176;6.738;2023-09-19T14:43:05;21.60;52.20
53268;DHT22;39156;51.176;6.738;2023-09-19T14:45:35;21.60;52.50
53268;DHT22;39156;51.176;6.738;2023-09-19T14:48:01;21.60;52.50
53268;DHT22;39156;51.176;6.738;2023-09-19T14:50:30;21.60;52.30
53268;DHT22;39156;51.176;6.738;2023-09-19T14:52:56;21.60;52.10
53268;DHT22;39156;51.176;6.738;2023-09-19T14:55:23;21.50;52.20
53268;DHT22;39156;51.176;6.738;2023-09-19T14:57:49;21.40;52.00
53268;DHT22;39156;51.176;6.738;2023-09-19T15:00:17;21.40;52.20
53268;DHT22;39156;51.176;6.738;2023-09-19T15:02:45;21.30;51.80
53268;DHT22;39156;51.176;6.738;2023-09-19T15:05:13;21.30;52.10
53268;DHT22;39156;51.176;6.738;2023-09-19T15:07:40;21.20;51.80
53268;DHT22;39156;51.176;6.738;2023-09-19T15:10:06;21.20;51.80
53268;DHT22;39156;51.176;6.738;2023-09-19T15:12:38;21.10;51.90
53268;DHT22;39156;51.176;6.738;2023-09-19T15:15:05;21.00;52.20
53268;DHT22;39156;51.176;6.738;2023-09-19T15:17:33;21.00;52.20
53268;DHT22;39156;51.176;6.738;2023-09-19T15:20:00;20.90;52.30
53268;DHT22;39156;51.176;6.738;2023-09-19T15:22:32;20.90;52.60
53268;DHT22;39156;51.176;6.738;2023-09-19T15:25:00;20.90;52.80
53268;DHT22;39156;51.176;6.738;2023-09-19T15:27:27;20.90;53.20
53268;DHT22;39156;51.176;6.738;2023-09-19T15:29:56;20.80;53.10
53268;DHT22;39156;51.176;6.738;2023-09-19T15:32:24;20.80;53.20
53268;DHT22;39156;51.176;6.738;2023-09-19T15:34:50;20.90;54.00
53268;DHT22;39156;51.176;6.738;2023-09-19T15:37:16;20.80;53.30
53268;DHT22;39156;51.176;6.738;2023-09-19T15:39:41;20.70;53.10
53268;DHT22;39156;51.176;6.738;2023-09-19T15:42:07;20.70;53.40
53268;DHT22;39156;51.176;6.738;2023-09-19T15:44:33;20.70;53.50
53268;DHT22;39156;51.176;6.738;2023-09-19T15:46:59;20.70;53.70
53268;DHT22;39156;51.176;6.738;2023-09-19T15:49:25;20.70;53.60
53268;DHT22;39156;51.176;6.738;2023-09-19T15:51:50;20.70;53.70
53268;DHT22;39156;51.176;6.738;2023-09-19T15:54:16;20.70;53.90
53268;DHT22;39156;51.176;6.738;2023-09-19T15:56:44;20.70;53.70
53268;DHT22;39156;51.176;6.738;2023-09-19T15:59:11;20.80;53.80
53268;DHT22;39156;51.176;6.738;2023-09-19T16:01:41;20.80;53.70
53268;DHT22;39156;51.176;6.738;2023-09-19T16:04:08;20.80;53.90
53268;DHT22;39156;51.176;6.738;2023-09-19T16:06:35;20.80;53.80
53268;DHT22;39156;51.176;6.738;2023-09-19T16:09:02;20.70;54.00
53268;DHT22;39156;51.176;6.738;2023-09-19T16:11:32;20.70;54.00
53268;DHT22;39156;51.176;6.738;2023-09-19T16:13:58;20.70;54.10
53268;DHT22;39156;51.176;6.738;2023-09-19T16:16:26;20.70;54.20
53268;DHT22;39156;51.176;6.738;2023-09-19T16:19:00;20.80;54.40
53268;DHT22;39156;51.176;6.738;2023-09-19T16:21:28;20.80;54.60
53268;DHT22;39156;51.176;6.738;2023-09-19T16:23:58;20.80;54.40
53268;DHT22;39156;51.176;6.738;2023-09-19T16:26:26;20.80;54.20
53268;DHT22;39156;51.176;6.738;2023-09-19T16:28:55;20.80;54.10
53268;DHT22;39156;51.176;6.738;2023-09-19T16:31:26;20.80;54.30
53268;DHT22;39156;51.176;6.738;2023-09-19T16:33:53;20.70;54.10
53268;DHT22;39156;51.176;6.738;2023-09-19T16:36:20;20.70;54.20
53268;DHT22;39156;51.176;6.738;2023-09-19T16:38:47;20.70;54.30
53268;DHT22;39156;51.176;6.738;2023-09-19T16:41:17;20.70;54.50